New Harmony, Mississippi
Current Conditions -  °F | °C
As of 12:53 PM on Monday 20 Oct 2014 (Local Time) from KTUP Reporting Station
Clear Clear  
Wind Chill: 70°   Ceiling: Unl
Heat Index: 70°   Visibility: 10mi
Dew Point: 49°   Wind: 5mph
Humidity: 47%   Direction: 330°NNW
Pressure: 30.06"   Gusts: NA
Location:  34.4333°N, 88.8629°W
Report Text: KTUP 201753Z 33004KT 10SM CLR 21/09 A3006 RMK AO2 SLP178 T02110094 10217 20061 58016 $
Loading
Personal Weather Stations






























Interactive Weather Map
Tropical Storm Tracking
New forecast layout! Learn more

10-Day Weather Forecast

Advertisements
Track Severe Weather on mobile